createdAt,value
2018-01-27T00:00:31.386Z,24.60
2018-01-27T00:02:59.715Z,21.87
2018-01-27T00:05:28.024Z,24.00
2018-01-27T00:07:56.382Z,25.73
2018-01-27T00:10:24.739Z,22.60
2018-01-27T00:12:53.127Z,23.67
2018-01-27T00:15:21.440Z,21.20
2018-01-27T00:17:50.784Z,22.77
2018-01-27T00:20:19.175Z,21.33
2018-01-27T00:22:52.424Z,20.97
2018-01-27T00:25:20.745Z,21.80
2018-01-27T00:27:49.087Z,21.43
2018-01-27T00:30:17.438Z,22.17
2018-01-27T00:32:45.744Z,22.03
2018-01-27T00:35:14.086Z,20.30
2018-01-27T00:37:42.430Z,23.80
2018-01-27T00:40:10.811Z,21.93
2018-01-27T00:42:39.142Z,21.10
2018-01-27T00:45:07.468Z,21.43
2018-01-27T00:47:35.796Z,21.13
2018-01-27T00:50:04.366Z,19.57
2018-01-27T00:52:32.724Z,20.13
2018-01-27T00:55:01.058Z,19.90
2018-01-27T00:57:29.383Z,22.50
2018-01-27T00:59:58.660Z,19.30
2018-01-27T01:02:31.263Z,20.07
2018-01-27T01:04:59.605Z,19.93
2018-01-27T01:07:27.924Z,21.40
2018-01-27T01:09:56.506Z,20.77
2018-01-27T01:12:24.846Z,20.77
2018-01-27T01:14:53.154Z,20.60
2018-01-27T01:17:21.512Z,19.10
2018-01-27T01:19:49.836Z,19.73
2018-01-27T01:22:18.166Z,19.50
2018-01-27T01:24:46.491Z,21.10
2018-01-27T01:27:14.809Z,20.33
2018-01-27T01:29:43.159Z,20.70
2018-01-27T01:32:11.543Z,22.90
2018-01-27T01:34:39.868Z,22.13
2018-01-27T01:37:08.185Z,24.30
2018-01-27T01:39:37.521Z,22.07
2018-01-27T01:42:06.015Z,21.50
2018-01-27T01:44:34.325Z,20.07
2018-01-27T01:47:02.661Z,21.83
2018-01-27T01:49:30.982Z,22.87
2018-01-27T01:51:59.326Z,20.93
2018-01-27T01:54:27.659Z,23.50
2018-01-27T01:56:55.979Z,22.60
2018-01-27T01:59:24.311Z,25.20
2018-01-27T02:01:52.638Z,24.73
2018-01-27T02:04:21.016Z,24.43
2018-01-27T02:06:50.092Z,23.57
2018-01-27T02:09:18.407Z,23.73
2018-01-27T02:11:46.743Z,26.00
2018-01-27T02:14:15.047Z,25.80
2018-01-27T02:16:43.371Z,23.83
2018-01-27T02:19:11.686Z,23.53
2018-01-27T02:21:39.999Z,25.23
2018-01-27T02:24:08.339Z,27.80
2018-01-27T02:26:36.656Z,23.97
2018-01-27T02:29:04.990Z,25.73
2018-01-27T02:31:33.287Z,24.20
2018-01-27T02:34:01.626Z,22.70
2018-01-27T02:36:29.971Z,23.00
2018-01-27T02:38:58.364Z,23.37
2018-01-27T02:41:27.318Z,25.00
2018-01-27T02:43:55.611Z,29.60
2018-01-27T02:46:23.936Z,31.93
2018-01-27T02:48:52.321Z,30.43
2018-01-27T02:51:20.628Z,34.10
2018-01-27T02:53:49.036Z,33.23
2018-01-27T02:56:17.352Z,32.60
2018-01-27T02:58:45.671Z,33.70
2018-01-27T03:01:14.011Z,32.60
2018-01-27T03:03:42.329Z,35.00
2018-01-27T03:06:10.656Z,36.73
2018-01-27T03:08:38.995Z,32.40
2018-01-27T03:11:07.380Z,35.53
2018-01-27T03:13:36.555Z,32.07
2018-01-27T03:16:04.891Z,34.60
2018-01-27T03:18:33.223Z,33.63
2018-01-27T03:21:01.544Z,35.83
2018-01-27T03:23:29.865Z,36.17
2018-01-27T03:25:58.193Z,37.70
2018-01-27T03:28:26.521Z,36.97
2018-01-27T03:30:54.838Z,35.50
2018-01-27T03:33:23.161Z,38.10
2018-01-27T03:35:51.493Z,38.57
2018-01-27T03:38:19.822Z,38.27
2018-01-27T03:40:48.119Z,34.50
2018-01-27T03:43:16.470Z,34.93
2018-01-27T03:45:44.814Z,33.77
2018-01-27T03:48:13.118Z,34.67
2018-01-27T03:50:41.456Z,34.20
2018-01-27T03:53:09.783Z,33.87
2018-01-27T03:55:38.108Z,35.43
2018-01-27T03:58:06.427Z,34.23
2018-01-27T04:00:34.801Z,29.40
2018-01-27T04:03:03.100Z,25.33
2018-01-27T04:05:31.483Z,22.60
2018-01-27T04:07:59.816Z,23.23
2018-01-27T04:10:28.134Z,19.90
2018-01-27T04:12:56.450Z,19.53
2018-01-27T04:15:24.774Z,20.20
2018-01-27T04:17:53.129Z,20.20
2018-01-27T04:20:21.456Z,22.40
2018-01-27T04:22:49.796Z,21.03
2018-01-27T04:25:18.112Z,21.40
2018-01-27T04:27:46.440Z,22.57
2018-01-27T04:30:14.749Z,21.50
2018-01-27T04:32:43.080Z,23.07
2018-01-27T04:35:11.417Z,23.00
2018-01-27T04:37:39.731Z,24.07
2018-01-27T04:40:08.061Z,20.87
2018-01-27T04:42:36.442Z,24.90
2018-01-27T04:45:04.770Z,25.13
2018-01-27T04:47:34.108Z,24.80
2018-01-27T04:50:02.430Z,24.53
2018-01-27T04:52:30.828Z,25.70
2018-01-27T04:54:59.123Z,24.07
2018-01-27T04:57:27.477Z,25.33
2018-01-27T04:59:55.784Z,26.10
2018-01-27T05:02:24.121Z,27.50
2018-01-27T05:04:52.646Z,27.93
2018-01-27T05:07:20.975Z,29.90
2018-01-27T05:09:49.379Z,31.33
2018-01-27T05:12:17.703Z,29.47
2018-01-27T05:14:46.049Z,29.43
2018-01-27T05:17:14.343Z,29.13
2018-01-27T05:19:42.678Z,29.87
2018-01-27T05:22:10.979Z,30.10
2018-01-27T05:24:39.310Z,31.23
2018-01-27T05:27:07.619Z,33.70
2018-01-27T05:29:35.969Z,35.70
2018-01-27T05:32:04.286Z,35.43
2018-01-27T05:34:32.609Z,32.83
2018-01-27T05:37:00.928Z,33.43
2018-01-27T05:39:29.236Z,32.40
2018-01-27T05:41:57.560Z,32.80
2018-01-27T05:44:25.890Z,32.57
2018-01-27T05:46:54.296Z,36.73
2018-01-27T05:49:22.632Z,24.57
2018-01-27T05:51:50.964Z,24.43
2018-01-27T05:54:19.296Z,25.77
2018-01-27T05:56:47.663Z,24.70
2018-01-27T05:59:15.980Z,26.57
2018-01-27T06:01:45.018Z,24.67
2018-01-27T06:04:13.342Z,21.73
2018-01-27T06:06:41.668Z,21.23
2018-01-27T06:09:09.982Z,20.60
2018-01-27T06:11:38.430Z,20.30
2018-01-27T06:14:06.736Z,21.10
2018-01-27T06:16:35.052Z,23.20
2018-01-27T06:19:03.376Z,22.57
2018-01-27T06:21:32.352Z,22.63
2018-01-27T06:24:00.706Z,23.27
2018-01-27T06:26:29.032Z,24.97
2018-01-27T06:28:57.358Z,25.57
2018-01-27T06:31:25.676Z,27.97
2018-01-27T06:33:54.068Z,27.33
2018-01-27T06:36:22.348Z,27.47
2018-01-27T06:38:50.703Z,30.47
2018-01-27T06:41:19.021Z,26.53
2018-01-27T06:43:47.350Z,29.47
2018-01-27T06:46:21.578Z,31.67
2018-01-27T06:48:49.911Z,29.10
2018-01-27T06:51:18.232Z,31.60
2018-01-27T06:53:46.567Z,30.63
2018-01-27T06:56:14.979Z,34.00
2018-01-27T06:58:43.274Z,29.90
2018-01-27T07:01:11.603Z,28.30
2018-01-27T07:03:39.937Z,27.83
2018-01-27T07:06:08.277Z,29.30
2018-01-27T07:08:36.652Z,27.80
2018-01-27T07:11:04.983Z,30.07
2018-01-27T07:13:33.316Z,30.90
2018-01-27T07:16:01.636Z,33.07
2018-01-27T07:18:29.984Z,34.43
2018-01-27T07:20:58.299Z,36.40
2018-01-27T07:23:26.636Z,36.33
2018-01-27T07:25:54.989Z,36.27
2018-01-27T07:28:23.328Z,40.60
2018-01-27T07:30:51.680Z,44.23
2018-01-27T07:33:20.009Z,38.77
2018-01-27T07:35:48.339Z,39.13
2018-01-27T07:38:16.668Z,43.80
2018-01-27T07:40:44.995Z,43.60
2018-01-27T07:43:13.312Z,47.00
2018-01-27T07:45:41.649Z,43.43
2018-01-27T07:48:09.998Z,43.80
2018-01-27T07:50:38.693Z,44.90
2018-01-27T07:53:07.743Z,43.33
2018-01-27T07:55:36.075Z,39.57
2018-01-27T07:58:04.648Z,43.50
2018-01-27T08:00:32.987Z,42.20
2018-01-27T08:03:01.329Z,44.23
2018-01-27T08:05:29.729Z,44.70
2018-01-27T08:07:58.040Z,44.07
2018-01-27T08:10:26.388Z,42.97
2018-01-27T08:12:54.719Z,43.67
2018-01-27T08:15:23.300Z,41.93
2018-01-27T08:17:51.684Z,43.70
2018-01-27T08:20:20.033Z,42.63
2018-01-27T08:22:48.404Z,45.77
2018-01-27T08:25:16.901Z,46.87
2018-01-27T08:27:45.227Z,40.30
2018-01-27T08:30:13.573Z,41.50
2018-01-27T08:32:41.900Z,39.50
2018-01-27T08:35:10.216Z,40.30
2018-01-27T08:37:38.556Z,43.80
2018-01-27T08:40:06.999Z,42.17
2018-01-27T08:42:35.312Z,41.97
2018-01-27T08:45:04.460Z,39.50
2018-01-27T08:47:32.814Z,40.13
2018-01-27T08:50:01.158Z,37.23
2018-01-27T08:52:29.490Z,42.27
2018-01-27T08:54:57.840Z,42.20
2018-01-27T08:57:26.187Z,42.77
2018-01-27T08:59:54.531Z,41.00
2018-01-27T09:02:22.858Z,44.10
2018-01-27T09:04:51.204Z,44.60
2018-01-27T09:07:19.563Z,41.10
2018-01-27T09:09:47.891Z,41.27
2018-01-27T09:12:16.223Z,43.53
2018-01-27T09:14:44.587Z,43.20
2018-01-27T09:17:12.944Z,44.43
2018-01-27T09:19:41.282Z,47.63
2018-01-27T09:22:09.640Z,48.20
2018-01-27T09:24:38.443Z,41.60
2018-01-27T09:27:06.827Z,44.90
2018-01-27T09:29:35.717Z,44.33
2018-01-27T09:32:04.053Z,42.83
2018-01-27T09:34:32.409Z,44.97
2018-01-27T09:37:00.760Z,46.10
2018-01-27T09:39:29.182Z,38.43
2018-01-27T09:41:57.536Z,41.70
2018-01-27T09:44:26.748Z,42.80
2018-01-27T09:46:55.121Z,44.20
2018-01-27T09:49:23.438Z,40.13
2018-01-27T09:51:51.792Z,44.10
2018-01-27T09:54:21.147Z,40.33
2018-01-27T09:56:49.836Z,40.77
2018-01-27T09:59:18.302Z,39.93
2018-01-27T10:01:46.730Z,40.83
2018-01-27T10:04:15.060Z,42.70
2018-01-27T10:06:43.406Z,40.90
2018-01-27T10:09:11.724Z,40.27
2018-01-27T10:11:40.074Z,38.17
2018-01-27T10:14:08.398Z,40.80
2018-01-27T10:16:36.867Z,40.40
2018-01-27T10:19:11.097Z,35.10
2018-01-27T10:21:39.464Z,39.20
2018-01-27T10:24:07.805Z,37.70
2018-01-27T10:26:36.148Z,37.73
2018-01-27T10:29:04.487Z,38.40
2018-01-27T10:31:50.424Z,37.47
2018-01-27T10:34:19.292Z,36.70
2018-01-27T10:36:47.708Z,35.87
2018-01-27T10:39:16.035Z,37.40
2018-01-27T10:41:44.373Z,39.87
2018-01-27T10:44:13.349Z,38.83
2018-01-27T10:46:41.689Z,40.27
2018-01-27T10:49:10.020Z,37.43
2018-01-27T10:51:38.348Z,38.57
2018-01-27T10:54:06.672Z,37.53
2018-01-27T10:56:35.110Z,34.80
2018-01-27T10:59:03.451Z,35.37
2018-01-27T11:01:31.779Z,36.30
2018-01-27T11:04:00.100Z,37.93
2018-01-27T11:06:32.204Z,38.23
2018-01-27T11:09:00.546Z,37.73
2018-01-27T11:11:28.889Z,38.67
2018-01-27T11:13:57.228Z,36.27
2018-01-27T11:16:28.053Z,38.93
2018-01-27T11:18:57.382Z,38.80
2018-01-27T11:21:25.668Z,36.60
2018-01-27T11:23:54.004Z,35.03
2018-01-27T11:26:22.377Z,38.00
2018-01-27T11:28:50.737Z,35.60
2018-01-27T11:31:19.088Z,37.40
2018-01-27T11:33:48.214Z,37.17
2018-01-27T11:36:16.551Z,36.90
2018-01-27T11:38:46.922Z,38.40
2018-01-27T11:41:15.260Z,40.63
2018-01-27T11:46:28.179Z,37.67
2018-01-27T11:48:56.561Z,36.87
2018-01-27T11:51:29.316Z,36.60
2018-01-27T11:53:59.183Z,35.13
2018-01-27T11:56:27.687Z,34.33
2018-01-27T11:58:56.120Z,36.27
2018-01-27T12:01:24.478Z,37.43
2018-01-27T12:03:52.820Z,35.37
2018-01-27T12:06:21.249Z,35.47
2018-01-27T12:08:49.640Z,37.30
2018-01-27T12:11:18.036Z,36.47
2018-01-27T12:13:46.651Z,36.40
2018-01-27T12:16:15.305Z,36.27
2018-01-27T12:18:43.893Z,34.00
2018-01-27T12:21:12.805Z,34.83
2018-01-27T12:23:51.316Z,34.37
2018-01-27T12:26:19.699Z,33.73
2018-01-27T12:28:48.094Z,34.90
2018-01-27T12:31:16.415Z,31.53
2018-01-27T12:33:44.752Z,31.87
2018-01-27T12:36:13.077Z,32.50
2018-01-27T12:38:41.708Z,33.00
2018-01-27T12:41:10.109Z,32.33
2018-01-27T12:43:38.458Z,28.93
2018-01-27T12:46:06.767Z,30.37
2018-01-27T12:51:08.288Z,27.63
2018-01-27T12:53:36.613Z,30.23
2018-01-27T12:56:04.998Z,31.67
2018-01-27T12:58:33.709Z,29.77
2018-01-27T13:01:02.036Z,29.70
2018-01-27T13:03:30.425Z,30.57
2018-01-27T13:05:58.767Z,30.77
2018-01-27T13:08:27.086Z,30.03
2018-01-27T13:10:58.340Z,30.50
2018-01-27T13:13:26.781Z,29.27
2018-01-27T13:15:55.122Z,30.10
2018-01-27T13:18:23.504Z,33.87
2018-01-27T13:20:51.916Z,29.83
2018-01-27T13:23:20.253Z,30.63
2018-01-27T13:25:48.569Z,28.67
2018-01-27T13:28:17.578Z,32.40
2018-01-27T13:30:45.934Z,29.13
2018-01-27T13:33:14.271Z,26.20
2018-01-27T13:35:43.573Z,29.97
2018-01-27T13:38:11.888Z,30.27
2018-01-27T13:40:41.458Z,28.57
2018-01-27T13:43:09.800Z,28.83
2018-01-27T13:45:38.779Z,27.87
2018-01-27T13:48:07.193Z,28.17
2018-01-27T13:50:35.554Z,27.80
2018-01-27T13:53:04.219Z,26.47
2018-01-27T13:55:32.597Z,26.00
2018-01-27T13:58:00.907Z,24.00
2018-01-27T14:00:29.231Z,25.93
2018-01-27T14:02:57.748Z,25.47
2018-01-27T14:05:26.108Z,26.40
2018-01-27T14:07:55.532Z,27.30
2018-01-27T14:10:24.813Z,27.13
2018-01-27T14:12:53.219Z,25.07
2018-01-27T14:15:21.620Z,24.97
2018-01-27T14:17:50.909Z,27.23
2018-01-27T14:20:19.393Z,27.60
2018-01-27T14:22:47.805Z,27.70
2018-01-27T14:25:16.553Z,26.77
2018-01-27T14:27:44.883Z,23.20
2018-01-27T14:30:13.213Z,23.87
2018-01-27T14:32:41.568Z,23.60
2018-01-27T14:35:10.051Z,23.80
2018-01-27T14:37:38.439Z,21.30
2018-01-27T14:40:06.790Z,22.70
2018-01-27T14:42:35.145Z,21.37
2018-01-27T14:45:04.296Z,20.77
2018-01-27T14:47:32.631Z,21.37
2018-01-27T14:50:01.004Z,22.00
2018-01-27T14:52:29.475Z,20.30
2018-01-27T14:54:58.188Z,23.53
2018-01-27T14:57:27.255Z,23.37
2018-01-27T14:59:56.704Z,24.57
2018-01-27T15:02:25.034Z,23.43
2018-01-27T15:04:53.372Z,23.80
2018-01-27T15:07:21.714Z,22.17
2018-01-27T15:09:50.901Z,24.10
2018-01-27T15:12:19.598Z,26.77
2018-01-27T15:14:47.932Z,26.60
2018-01-27T15:17:16.292Z,26.33
2018-01-27T15:19:44.758Z,25.90
2018-01-27T15:22:13.754Z,25.23
2018-01-27T15:24:42.360Z,27.70
2018-01-27T15:27:10.696Z,24.93
2018-01-27T15:29:39.068Z,24.33
2018-01-27T15:32:07.780Z,27.10
2018-01-27T15:34:36.199Z,25.80
2018-01-27T15:37:04.585Z,27.77
2018-01-27T15:39:33.491Z,27.67
2018-01-27T15:42:01.828Z,30.40
2018-01-27T15:44:32.161Z,28.13
2018-01-27T15:47:02.606Z,31.10
2018-01-27T15:49:30.988Z,27.83
2018-01-27T15:51:59.361Z,28.67
2018-01-27T15:54:28.960Z,31.60
2018-01-27T15:57:00.591Z,31.53
2018-01-27T15:59:29.263Z,28.60
2018-01-27T16:01:57.701Z,28.73
2018-01-27T16:04:26.489Z,30.90
2018-01-27T16:06:54.861Z,29.00
2018-01-27T16:09:23.956Z,31.17
2018-01-27T16:11:52.533Z,31.67
2018-01-27T16:14:20.928Z,32.13
2018-01-27T16:16:51.555Z,31.97
2018-01-27T16:19:20.100Z,33.13
2018-01-27T16:21:50.163Z,33.60
2018-01-27T16:24:22.616Z,38.10
2018-01-27T16:26:51.276Z,37.07
2018-01-27T16:29:19.639Z,34.53
2018-01-27T16:31:48.287Z,33.93
2018-01-27T16:34:16.658Z,34.00
2018-01-27T16:36:47.082Z,36.07
2018-01-27T16:39:15.591Z,35.13
2018-01-27T16:44:17.134Z,35.73
2018-01-27T16:46:45.967Z,38.80
2018-01-27T16:49:14.297Z,36.40
2018-01-27T16:51:42.652Z,37.90
2018-01-27T16:54:11.011Z,37.90
2018-01-27T16:56:39.436Z,36.67
2018-01-27T16:59:07.753Z,41.27
2018-01-27T17:01:36.081Z,38.00
2018-01-27T17:04:04.410Z,40.53
2018-01-27T17:06:32.809Z,36.90
2018-01-27T17:09:01.646Z,38.20
2018-01-27T17:11:30.013Z,40.27
2018-01-27T17:13:59.125Z,43.90
2018-01-27T17:16:28.644Z,41.17
2018-01-27T17:18:57.020Z,45.40
2018-01-27T17:21:25.413Z,44.47
2018-01-27T17:23:53.945Z,44.70
2018-01-27T17:26:23.304Z,42.40
2018-01-27T17:28:51.721Z,40.90
2018-01-27T17:31:20.087Z,39.60
2018-01-27T17:33:48.508Z,40.43
2018-01-27T17:36:16.822Z,40.07
2018-01-27T17:38:45.232Z,39.70
2018-01-27T17:41:13.563Z,41.20
2018-01-27T17:43:41.933Z,39.90
2018-01-27T17:46:10.361Z,42.57
2018-01-27T17:48:42.303Z,44.03
2018-01-27T17:51:10.668Z,41.57
2018-01-27T17:53:38.992Z,41.63
2018-01-27T17:56:07.428Z,43.50
2018-01-27T17:58:35.940Z,44.13
2018-01-27T18:01:04.292Z,42.93
2018-01-27T18:03:32.653Z,41.87
2018-01-27T18:06:00.982Z,41.17
2018-01-27T18:08:29.317Z,41.80
2018-01-27T18:10:57.658Z,41.03
2018-01-27T18:13:26.016Z,42.87
2018-01-27T18:15:54.340Z,40.87
2018-01-27T18:18:22.715Z,40.60
2018-01-27T18:20:51.112Z,41.50
2018-01-27T18:23:19.469Z,40.70
2018-01-27T18:25:47.810Z,43.40
2018-01-27T18:28:16.534Z,40.10
2018-01-27T18:30:44.957Z,39.70
2018-01-27T18:33:13.426Z,37.50
2018-01-27T18:35:41.782Z,37.50
2018-01-27T18:38:12.153Z,38.70
2018-01-27T18:40:40.477Z,35.43
2018-01-27T18:43:08.881Z,40.30
2018-01-27T18:45:37.270Z,38.53
2018-01-27T18:48:05.581Z,37.67
2018-01-27T18:50:33.923Z,40.23
2018-01-27T18:53:02.263Z,38.40
2018-01-27T18:55:30.600Z,41.27
2018-01-27T18:57:58.926Z,37.77
2018-01-27T19:00:27.408Z,39.40
2018-01-27T19:02:55.760Z,39.10
2018-01-27T19:05:24.137Z,40.20
2018-01-27T19:07:52.477Z,35.27
2018-01-27T19:10:20.823Z,39.53
2018-01-27T19:12:49.178Z,34.60
2018-01-27T19:15:17.569Z,41.00
2018-01-27T19:17:45.879Z,34.03
2018-01-27T19:20:14.219Z,35.70
2018-01-27T19:22:42.537Z,36.00
2018-01-27T19:25:10.870Z,34.27
2018-01-27T19:27:39.205Z,39.00
2018-01-27T19:30:07.523Z,39.17
2018-01-27T19:32:35.863Z,37.47
2018-01-27T19:35:04.207Z,37.53
2018-01-27T19:37:32.519Z,37.80
2018-01-27T19:40:00.986Z,37.30
2018-01-27T19:42:29.303Z,40.03
2018-01-27T19:44:57.643Z,39.37
2018-01-27T19:47:25.972Z,36.67
2018-01-27T19:49:54.306Z,38.37
2018-01-27T19:52:22.632Z,35.40
2018-01-27T19:54:51.525Z,36.80
2018-01-27T19:57:19.943Z,32.90
2018-01-27T19:59:48.275Z,33.57
2018-01-27T20:02:16.601Z,34.23
2018-01-27T20:04:45.082Z,36.20
2018-01-27T20:07:15.175Z,32.13
2018-01-27T20:09:44.367Z,33.10
2018-01-27T20:12:13.345Z,35.03
2018-01-27T20:14:41.695Z,34.90
2018-01-27T20:17:10.034Z,32.57
2018-01-27T20:19:38.549Z,33.07
2018-01-27T20:22:07.084Z,33.40
2018-01-27T20:24:35.436Z,31.20
2018-01-27T20:27:03.768Z,33.70
2018-01-27T20:29:33.213Z,33.67
2018-01-27T20:32:01.535Z,42.03
2018-01-27T20:34:29.843Z,62.43
2018-01-27T20:36:58.162Z,60.50
2018-01-27T20:39:26.599Z,95.43
2018-01-27T20:41:54.932Z,59.93
2018-01-27T20:44:23.275Z,88.80
2018-01-27T20:46:51.619Z,128.97
2018-01-27T20:49:21.665Z,34.30
2018-01-27T20:51:56.710Z,33.83
2018-01-27T20:54:25.080Z,31.23
2018-01-27T20:56:53.426Z,33.67
2018-01-27T20:59:21.746Z,32.07
2018-01-27T21:01:50.075Z,31.67
2018-01-27T21:04:18.606Z,30.83
2018-01-27T21:06:47.365Z,32.33
2018-01-27T21:09:19.657Z,34.20
2018-01-27T21:11:48.080Z,31.67
2018-01-27T21:14:16.572Z,30.27
2018-01-27T21:16:45.005Z,31.53
2018-01-27T21:19:13.322Z,32.17
2018-01-27T21:21:41.844Z,31.73
2018-01-27T21:24:10.193Z,30.33
2018-01-27T21:26:38.548Z,33.57
2018-01-27T21:29:07.195Z,31.10
2018-01-27T21:36:40.422Z,30.57
2018-01-27T21:39:09.088Z,34.90
2018-01-27T21:41:37.470Z,34.17
2018-01-27T21:44:05.803Z,33.10
2018-01-27T21:46:34.137Z,29.13
2018-01-27T21:49:03.189Z,33.37
2018-01-27T21:51:31.486Z,32.10
2018-01-27T21:53:59.875Z,34.10
2018-01-27T21:56:28.207Z,29.77
2018-01-27T21:58:56.549Z,32.37
2018-01-27T22:01:24.922Z,34.20
2018-01-27T22:03:53.261Z,32.77
2018-01-27T22:06:21.600Z,30.80
2018-01-27T22:08:49.934Z,34.23
2018-01-27T22:11:18.270Z,30.50
2018-01-27T22:13:46.611Z,33.03
2018-01-27T22:16:14.943Z,32.10
2018-01-27T22:18:43.304Z,31.47
2018-01-27T22:21:11.643Z,36.33
2018-01-27T22:23:40.069Z,36.10
2018-01-27T22:26:08.400Z,33.93
2018-01-27T22:28:36.796Z,32.43
2018-01-27T22:31:05.169Z,32.60
2018-01-27T22:33:33.475Z,31.27
2018-01-27T22:36:01.833Z,36.37
2018-01-27T22:38:30.191Z,36.43
2018-01-27T22:40:58.502Z,35.40
2018-01-27T22:43:26.842Z,31.00
2018-01-27T22:45:55.162Z,35.23
2018-01-27T22:48:23.509Z,31.70
2018-01-27T22:50:51.820Z,35.97
2018-01-27T22:53:20.158Z,37.47
2018-01-27T22:55:48.527Z,35.33
2018-01-27T22:58:16.853Z,36.20
2018-01-27T23:03:49.552Z,36.67
2018-01-27T23:06:18.781Z,39.10
2018-01-27T23:08:47.411Z,35.70
2018-01-27T23:11:16.081Z,36.17
2018-01-27T23:13:44.506Z,34.17
2018-01-27T23:16:12.892Z,35.57
2018-01-27T23:18:41.222Z,35.60
2018-01-27T23:21:09.582Z,35.50
2018-01-27T23:23:38.326Z,37.17
2018-01-27T23:26:06.648Z,36.20
2018-01-27T23:28:34.976Z,34.20
2018-01-27T23:31:03.302Z,35.33
2018-01-27T23:33:31.626Z,33.67
2018-01-27T23:35:59.961Z,34.90
2018-01-27T23:38:28.459Z,36.30
2018-01-27T23:40:56.813Z,35.63
2018-01-27T23:43:25.136Z,32.97
2018-01-27T23:45:53.468Z,36.23
2018-01-27T23:48:21.792Z,37.10
2018-01-27T23:50:50.137Z,34.40
2018-01-27T23:53:18.467Z,34.33
2018-01-27T23:55:46.841Z,33.10
2018-01-27T23:58:15.160Z,35.40
